Apperley Bridge, United Kingdom
Current Conditions -  °F | °C
As of 7:50 AM on Thursday 29 Jan 2015 (Local Time) from EGNM Reporting Station
Scattered Clouds Scattered Clouds  
Wind Chill: 22°   Ceiling: Unl
Heat Index: 32°   Visibility: 6mi
Dew Point: 30°   Wind: 14mph
Humidity: 93%   Direction: 260°W
Pressure: 28.94"   Gusts: NA
Location:  53.84°N, 1.73°W
Report Text: EGNM 290750Z 26012KT 230V290 9999 SCT012CB 00/M01 Q0980 R14/590195
Loading
Personal Weather Stations






























Interactive Weather Map New forecast layout! Learn more

10-Day Weather Forecast

Advertisements
Track Severe Weather on mobile